createdAt,value
2024-01-20T00:01:11.597Z,44.72
2024-01-20T00:03:48.211Z,44.81
2024-01-20T00:06:15.854Z,44.64
2024-01-20T00:08:43.664Z,44.90
2024-01-20T00:11:11.442Z,44.73
2024-01-20T00:13:39.568Z,44.70
2024-01-20T00:16:07.103Z,44.89
2024-01-20T00:18:35.081Z,44.67
2024-01-20T00:21:02.629Z,44.86
2024-01-20T00:23:30.524Z,44.90
2024-01-20T00:25:57.946Z,44.88
2024-01-20T00:28:25.729Z,44.54
2024-01-20T00:30:53.015Z,44.70
2024-01-20T00:33:20.862Z,44.84
2024-01-20T00:35:48.446Z,44.76
2024-01-20T00:38:16.314Z,44.69
2024-01-20T00:40:43.711Z,44.74
2024-01-20T00:43:11.420Z,44.71
2024-01-20T00:45:38.652Z,44.59
2024-01-20T00:48:06.438Z,44.66
2024-01-20T00:50:33.854Z,44.50
2024-01-20T00:53:01.544Z,44.89
2024-01-20T00:55:28.972Z,44.74
2024-01-20T00:57:56.571Z,44.77
2024-01-20T01:00:24.028Z,44.62
2024-01-20T01:02:51.667Z,44.89
2024-01-20T01:05:19.392Z,44.62
2024-01-20T01:07:47.417Z,44.86
2024-01-20T01:10:15.070Z,44.61
2024-01-20T01:12:42.745Z,44.60
2024-01-20T01:15:10.301Z,44.81
2024-01-20T01:17:38.420Z,44.64
2024-01-20T01:20:06.329Z,44.77
2024-01-20T01:22:34.383Z,44.80
2024-01-20T01:25:02.057Z,44.81
2024-01-20T01:27:30.127Z,44.72
2024-01-20T01:29:57.502Z,44.77
2024-01-20T01:32:26.713Z,44.62
2024-01-20T01:34:54.232Z,44.78
2024-01-20T01:37:22.111Z,44.62
2024-01-20T01:39:49.987Z,44.65
2024-01-20T01:42:17.527Z,44.89
2024-01-20T01:44:44.851Z,44.74
2024-01-20T01:47:12.607Z,44.71
2024-01-20T01:52:08.993Z,44.81
2024-01-20T01:54:36.500Z,44.63
2024-01-20T01:57:07.030Z,44.79
2024-01-20T01:59:35.582Z,44.66
2024-01-20T02:02:03.300Z,44.71
2024-01-20T02:04:31.172Z,44.58
2024-01-20T02:06:59.845Z,44.50
2024-01-20T02:09:27.411Z,44.70
2024-01-20T02:11:56.168Z,44.55
2024-01-20T02:14:23.573Z,44.79
2024-01-20T02:16:51.677Z,44.57
2024-01-20T02:19:19.055Z,44.71
2024-01-20T02:21:46.657Z,44.76
2024-01-20T02:24:14.499Z,44.57
2024-01-20T02:26:42.138Z,44.72
2024-01-20T02:29:09.383Z,44.63
2024-01-20T02:31:39.270Z,44.36
2024-01-20T02:34:06.941Z,44.47
2024-01-20T02:36:34.629Z,44.34
2024-01-20T02:39:01.922Z,44.43
2024-01-20T02:41:29.529Z,44.43
2024-01-20T02:43:56.802Z,44.45
2024-01-20T02:46:24.405Z,44.64
2024-01-20T02:48:52.004Z,44.55
2024-01-20T02:51:19.670Z,44.70
2024-01-20T02:53:46.973Z,44.60
2024-01-20T02:56:14.760Z,44.53
2024-01-20T02:58:42.045Z,44.35
2024-01-20T03:01:09.597Z,44.42
2024-01-20T03:03:37.094Z,44.54
2024-01-20T03:06:04.983Z,44.31
2024-01-20T03:08:32.272Z,44.46
2024-01-20T03:11:00.028Z,44.35
2024-01-20T03:13:27.520Z,44.34
2024-01-20T03:15:55.101Z,44.50
2024-01-20T03:18:22.605Z,44.59
2024-01-20T03:20:50.739Z,44.42
2024-01-20T03:23:18.214Z,44.34
2024-01-20T03:25:45.822Z,44.48
2024-01-20T03:28:13.118Z,44.26
2024-01-20T03:30:40.820Z,44.22
2024-01-20T03:33:08.403Z,44.31
2024-01-20T03:35:36.392Z,44.58
2024-01-20T03:38:04.905Z,44.29
2024-01-20T03:40:32.961Z,44.29
2024-01-20T03:43:00.517Z,44.21
2024-01-20T03:45:28.295Z,44.50
2024-01-20T03:47:55.765Z,44.15
2024-01-20T03:50:23.627Z,44.36
2024-01-20T03:52:50.976Z,44.34
2024-01-20T03:55:18.519Z,44.21
2024-01-20T03:57:45.781Z,44.38
2024-01-20T04:00:14.053Z,44.30
2024-01-20T04:02:41.476Z,44.17
2024-01-20T04:05:09.411Z,44.19
2024-01-20T04:07:38.126Z,44.36
2024-01-20T04:10:06.361Z,44.23
2024-01-20T04:12:33.802Z,44.21
2024-01-20T04:15:01.574Z,44.21
2024-01-20T04:17:29.040Z,44.34
2024-01-20T04:19:57.700Z,44.30
2024-01-20T04:22:25.520Z,44.12
2024-01-20T04:24:53.180Z,44.36
2024-01-20T04:27:20.536Z,44.23
2024-01-20T04:29:48.149Z,44.14
2024-01-20T04:32:15.393Z,43.96
2024-01-20T04:34:43.009Z,44.00
2024-01-20T04:37:10.910Z,43.66
2024-01-20T04:39:39.443Z,44.17
2024-01-20T04:42:08.427Z,43.83
2024-01-20T04:44:36.064Z,43.81
2024-01-20T04:47:03.659Z,43.75
2024-01-20T04:49:31.411Z,43.68
2024-01-20T04:52:02.839Z,43.68
2024-01-20T04:54:30.542Z,43.69
2024-01-20T04:56:58.833Z,43.54
2024-01-20T04:59:26.424Z,43.81
2024-01-20T05:01:54.013Z,44.04
2024-01-20T05:04:21.636Z,43.93
2024-01-20T05:06:49.801Z,43.92
2024-01-20T05:09:17.514Z,44.16
2024-01-20T05:11:44.862Z,44.15
2024-01-20T05:14:12.678Z,44.11
2024-01-20T05:16:40.003Z,44.18
2024-01-20T05:19:08.074Z,44.25
2024-01-20T05:21:35.681Z,43.94
2024-01-20T05:24:04.021Z,43.93
2024-01-20T05:26:32.490Z,44.11
2024-01-20T05:29:01.152Z,44.15
2024-01-20T05:31:32.929Z,44.29
2024-01-20T05:34:00.936Z,44.30
2024-01-20T05:36:28.474Z,44.18
2024-01-20T05:38:56.203Z,44.24
2024-01-20T05:41:23.523Z,44.27
2024-01-20T05:43:51.091Z,44.12
2024-01-20T05:46:21.441Z,44.32
2024-01-20T05:48:49.406Z,44.30
2024-01-20T05:51:16.934Z,44.18
2024-01-20T05:53:44.530Z,44.41
2024-01-20T05:56:12.036Z,44.33
2024-01-20T05:58:39.634Z,44.33
2024-01-20T06:01:10.556Z,44.36
2024-01-20T06:03:38.377Z,44.19
2024-01-20T06:06:06.333Z,44.43
2024-01-20T06:08:33.970Z,44.12
2024-01-20T06:11:01.270Z,44.32
2024-01-20T06:13:30.410Z,44.18
2024-01-20T06:15:57.727Z,44.28
2024-01-20T06:18:25.615Z,44.38
2024-01-20T06:20:53.383Z,44.23
2024-01-20T06:23:21.109Z,44.29
2024-01-20T06:25:48.958Z,44.62
2024-01-20T06:28:16.641Z,44.34
2024-01-20T06:30:47.434Z,44.53
2024-01-20T06:33:15.180Z,44.63
2024-01-20T06:35:42.861Z,44.50
2024-01-20T06:38:10.612Z,44.70
2024-01-20T06:40:37.956Z,44.67
2024-01-20T06:43:05.763Z,44.42
2024-01-20T06:45:34.858Z,44.64
2024-01-20T06:48:02.812Z,44.71
2024-01-20T06:50:30.450Z,44.70
2024-01-20T06:52:58.020Z,44.51
2024-01-20T06:55:26.207Z,44.27
2024-01-20T06:57:53.785Z,44.47
2024-01-20T07:00:21.560Z,44.44
2024-01-20T07:02:49.149Z,44.39
2024-01-20T07:05:16.648Z,44.32
2024-01-20T07:07:44.330Z,44.51
2024-01-20T07:10:12.376Z,44.37
2024-01-20T07:12:40.026Z,43.60
2024-01-20T07:15:07.982Z,43.34
2024-01-20T07:17:36.052Z,43.35
2024-01-20T07:20:04.168Z,43.01
2024-01-20T07:22:32.687Z,42.99
2024-01-20T07:25:00.279Z,42.86
2024-01-20T07:27:27.954Z,42.96
2024-01-20T07:29:55.522Z,42.78
2024-01-20T07:32:23.186Z,42.96
2024-01-20T07:34:50.822Z,42.82
2024-01-20T07:37:20.153Z,42.88
2024-01-20T07:39:48.268Z,43.07
2024-01-20T07:42:16.336Z,43.17
2024-01-20T07:44:43.675Z,43.00
2024-01-20T07:47:14.133Z,43.29
2024-01-20T07:49:41.562Z,43.16
2024-01-20T07:52:09.128Z,43.20
2024-01-20T07:54:36.531Z,43.31
2024-01-20T07:57:04.779Z,43.25
2024-01-20T07:59:32.334Z,43.24
2024-01-20T08:01:59.661Z,43.47
2024-01-20T08:04:27.738Z,43.31
2024-01-20T08:06:55.180Z,43.45
2024-01-20T08:09:22.744Z,43.63
2024-01-20T08:11:50.750Z,43.73
2024-01-20T08:14:18.388Z,43.35
2024-01-20T08:16:45.772Z,43.57
2024-01-20T08:19:13.447Z,43.35
2024-01-20T08:21:40.918Z,43.54
2024-01-20T08:24:08.540Z,43.25
2024-01-20T08:26:36.195Z,43.37
2024-01-20T08:29:03.789Z,43.12
2024-01-20T08:31:31.177Z,43.29
2024-01-20T08:33:58.984Z,43.29
2024-01-20T08:36:26.680Z,43.23
2024-01-20T08:38:54.248Z,43.42
2024-01-20T08:41:21.577Z,43.83
2024-01-20T08:43:49.224Z,43.86
2024-01-20T08:46:16.574Z,44.12
2024-01-20T08:48:44.302Z,44.55
2024-01-20T08:51:12.079Z,44.77
2024-01-20T08:53:40.593Z,44.78
2024-01-20T08:56:08.987Z,44.78
2024-01-20T08:58:36.633Z,44.83
2024-01-20T09:01:04.389Z,44.90
2024-01-20T09:03:32.661Z,45.10
2024-01-20T09:06:00.780Z,45.11
2024-01-20T09:08:28.447Z,45.33
2024-01-20T09:10:55.847Z,45.51
2024-01-20T09:13:23.494Z,45.52
2024-01-20T09:15:51.321Z,45.78
2024-01-20T09:18:20.955Z,45.90
2024-01-20T09:20:49.203Z,45.87
2024-01-20T09:23:16.785Z,45.78
2024-01-20T09:25:45.722Z,45.81
2024-01-20T09:28:13.294Z,45.73
2024-01-20T09:30:40.977Z,45.73
2024-01-20T09:33:08.859Z,45.93
2024-01-20T09:35:36.215Z,46.09
2024-01-20T09:38:04.474Z,45.82
2024-01-20T09:40:33.361Z,46.09
2024-01-20T09:43:01.432Z,46.22
2024-01-20T09:45:30.005Z,45.85
2024-01-20T09:47:58.772Z,46.15
2024-01-20T09:50:26.111Z,46.11
2024-01-20T09:53:01.452Z,46.02
2024-01-20T09:55:29.457Z,46.21
2024-01-20T09:57:58.218Z,46.19
2024-01-20T10:00:25.625Z,46.05
2024-01-20T10:02:53.398Z,46.50
2024-01-20T10:05:24.940Z,46.34
2024-01-20T10:07:52.504Z,46.41
2024-01-20T10:10:22.589Z,46.35
2024-01-20T10:12:51.777Z,46.45
2024-01-20T10:15:29.845Z,46.49
2024-01-20T10:18:00.701Z,46.14
2024-01-20T10:20:35.086Z,46.39
2024-01-20T10:23:04.604Z,46.29
2024-01-20T10:25:32.559Z,46.41
2024-01-20T10:28:00.629Z,46.43
2024-01-20T10:30:29.978Z,46.22
2024-01-20T10:33:08.940Z,46.41
2024-01-20T10:35:39.200Z,46.21
2024-01-20T10:38:13.446Z,46.43
2024-01-20T10:40:43.842Z,46.23
2024-01-20T10:43:16.898Z,46.05
2024-01-20T10:46:02.254Z,46.44
2024-01-20T10:48:35.403Z,46.75
2024-01-20T10:51:08.346Z,46.91
2024-01-20T10:53:36.701Z,46.73
2024-01-20T10:56:05.621Z,46.71
2024-01-20T10:58:36.647Z,46.74
2024-01-20T11:01:05.073Z,46.83
2024-01-20T11:03:33.726Z,46.99
2024-01-20T11:06:01.415Z,47.04
2024-01-20T11:08:29.610Z,47.00
2024-01-20T11:10:56.918Z,46.98
2024-01-20T11:13:27.101Z,47.07
2024-01-20T11:15:56.115Z,47.40
2024-01-20T11:18:24.734Z,47.61
2024-01-20T11:21:02.669Z,47.37
2024-01-20T11:23:31.138Z,47.40
2024-01-20T11:26:09.884Z,47.52
2024-01-20T11:28:37.893Z,47.71
2024-01-20T11:31:05.731Z,47.88
2024-01-20T11:33:33.531Z,47.61
2024-01-20T11:36:01.433Z,48.01
2024-01-20T11:38:30.004Z,47.89
2024-01-20T11:41:01.627Z,47.79
2024-01-20T11:43:29.514Z,48.06
2024-01-20T11:45:58.318Z,48.14
2024-01-20T11:48:26.803Z,48.26
2024-01-20T11:50:54.864Z,48.38
2024-01-20T11:53:23.506Z,48.09
2024-01-20T11:55:55.301Z,48.49
2024-01-20T11:58:23.453Z,48.60
2024-01-20T12:00:53.321Z,48.41
2024-01-20T12:03:22.027Z,48.70
2024-01-20T12:05:51.119Z,48.74
2024-01-20T12:08:19.561Z,48.57
2024-01-20T12:10:47.323Z,48.96
2024-01-20T12:13:17.654Z,48.74
2024-01-20T12:15:47.981Z,48.84
2024-01-20T12:18:17.993Z,49.06
2024-01-20T12:20:45.902Z,48.82
2024-01-20T12:23:21.112Z,49.08
2024-01-20T12:25:52.669Z,49.04
2024-01-20T12:28:20.985Z,49.16
2024-01-20T12:30:48.520Z,49.19
2024-01-20T12:33:16.252Z,49.07
2024-01-20T12:35:43.951Z,49.13
2024-01-20T12:38:11.899Z,49.25
2024-01-20T12:40:39.224Z,49.17
2024-01-20T12:43:06.889Z,49.14
2024-01-20T12:45:34.273Z,49.55
2024-01-20T12:48:01.926Z,49.20
2024-01-20T12:50:29.339Z,49.07
2024-01-20T12:52:57.198Z,49.33
2024-01-20T12:55:24.548Z,49.47
2024-01-20T12:57:52.562Z,49.18
2024-01-20T13:00:20.111Z,49.10
2024-01-20T13:02:47.740Z,48.99
2024-01-20T13:05:15.241Z,49.12
2024-01-20T13:07:43.113Z,49.04
2024-01-20T13:10:11.097Z,49.02
2024-01-20T13:12:39.354Z,49.02
2024-01-20T13:15:07.377Z,48.81
2024-01-20T13:17:35.078Z,49.16
2024-01-20T13:20:03.309Z,49.20
2024-01-20T13:22:30.926Z,49.14
2024-01-20T13:24:58.490Z,48.97
2024-01-20T13:27:26.214Z,48.88
2024-01-20T13:29:53.816Z,48.99
2024-01-20T13:32:21.726Z,49.24
2024-01-20T13:34:49.146Z,49.24
2024-01-20T13:37:16.830Z,49.08
2024-01-20T13:39:44.228Z,49.46
2024-01-20T13:42:12.515Z,49.23
2024-01-20T13:44:39.850Z,49.31
2024-01-20T13:47:07.987Z,49.32
2024-01-20T13:49:37.071Z,49.63
2024-01-20T13:52:05.342Z,49.38
2024-01-20T13:54:32.704Z,49.31
2024-01-20T13:57:00.339Z,49.29
2024-01-20T13:59:28.112Z,49.22
2024-01-20T14:01:58.720Z,49.27
2024-01-20T14:04:26.071Z,49.19
2024-01-20T14:06:53.980Z,49.20
2024-01-20T14:09:23.613Z,48.93
2024-01-20T14:11:51.290Z,49.06
2024-01-20T14:14:18.624Z,49.05
2024-01-20T14:16:59.043Z,49.04
2024-01-20T14:19:28.136Z,49.08
2024-01-20T14:21:56.538Z,49.07
2024-01-20T14:24:23.917Z,49.19
2024-01-20T14:26:51.598Z,49.20
2024-01-20T14:29:18.884Z,49.13
2024-01-20T14:31:50.927Z,49.31
2024-01-20T14:34:19.969Z,49.23
2024-01-20T14:36:52.353Z,49.01
2024-01-20T14:39:20.064Z,49.10
2024-01-20T14:41:47.752Z,49.15
2024-01-20T14:44:15.573Z,49.18
2024-01-20T14:46:43.450Z,49.04
2024-01-20T14:49:11.618Z,49.20
2024-01-20T14:51:40.611Z,49.11
2024-01-20T14:54:08.336Z,49.15
2024-01-20T14:56:40.806Z,49.14
2024-01-20T14:59:08.629Z,48.97
2024-01-20T15:01:38.446Z,49.05
2024-01-20T15:04:07.094Z,48.92
2024-01-20T15:06:34.928Z,48.87
2024-01-20T15:09:02.438Z,49.01
2024-01-20T15:11:30.059Z,48.93
2024-01-20T15:13:57.366Z,48.88
2024-01-20T15:16:24.923Z,49.05
2024-01-20T15:18:52.430Z,49.06
2024-01-20T15:21:22.203Z,48.90
2024-01-20T15:23:49.929Z,48.86
2024-01-20T15:26:30.398Z,48.88
2024-01-20T15:28:58.179Z,48.78
2024-01-20T15:31:25.781Z,48.89
2024-01-20T15:33:54.548Z,48.84
2024-01-20T15:36:22.212Z,48.79
2024-01-20T15:38:49.613Z,48.84
2024-01-20T15:41:17.454Z,48.82
2024-01-20T15:43:44.922Z,48.88
2024-01-20T15:46:12.828Z,48.77
2024-01-20T15:48:40.278Z,48.75
2024-01-20T15:51:07.922Z,48.73
2024-01-20T15:53:36.410Z,48.76
2024-01-20T15:56:04.351Z,48.92
2024-01-20T15:58:32.123Z,48.78
2024-01-20T16:01:00.170Z,48.74
2024-01-20T16:03:27.893Z,48.84
2024-01-20T16:05:55.631Z,48.84
2024-01-20T16:08:22.963Z,48.69
2024-01-20T16:10:50.703Z,48.74
2024-01-20T16:13:18.013Z,48.90
2024-01-20T16:15:45.836Z,48.91
2024-01-20T16:18:15.675Z,48.87
2024-01-20T16:20:43.345Z,48.65
2024-01-20T16:23:10.894Z,48.74
2024-01-20T16:25:39.273Z,48.73
2024-01-20T16:28:06.628Z,48.90
2024-01-20T16:30:34.654Z,48.79
2024-01-20T16:33:02.196Z,48.95
2024-01-20T16:35:29.821Z,48.78
2024-01-20T16:37:57.897Z,48.96
2024-01-20T16:40:25.778Z,48.99
2024-01-20T16:42:53.174Z,48.93
2024-01-20T16:45:20.951Z,48.88
2024-01-20T16:47:49.735Z,48.88
2024-01-20T16:50:18.139Z,48.90
2024-01-20T16:52:45.470Z,48.90
2024-01-20T16:55:15.201Z,48.87
2024-01-20T16:57:43.390Z,48.83
2024-01-20T17:00:13.166Z,48.93
2024-01-20T17:02:40.667Z,48.68
2024-01-20T17:05:08.353Z,48.67
2024-01-20T17:07:35.706Z,48.53
2024-01-20T17:10:03.924Z,48.84
2024-01-20T17:12:31.386Z,48.93
2024-01-20T17:14:59.047Z,48.69
2024-01-20T17:17:26.429Z,48.64
2024-01-20T17:19:54.589Z,48.84
2024-01-20T17:22:21.860Z,48.75
2024-01-20T17:24:49.522Z,48.67
2024-01-20T17:27:16.937Z,48.85
2024-01-20T17:29:44.659Z,48.80
2024-01-20T17:32:11.923Z,48.76
2024-01-20T17:34:40.090Z,48.71
2024-01-20T17:37:07.479Z,48.58
2024-01-20T17:39:39.003Z,48.53
2024-01-20T17:42:06.530Z,48.49
2024-01-20T17:44:35.012Z,48.39
2024-01-20T17:47:02.450Z,48.46
2024-01-20T17:49:30.248Z,48.45
2024-01-20T17:51:57.678Z,48.39
2024-01-20T17:54:28.506Z,48.40
2024-01-20T17:56:56.182Z,48.42
2024-01-20T17:59:23.736Z,48.29
2024-01-20T18:01:51.987Z,48.45
2024-01-20T18:04:19.768Z,48.34
2024-01-20T18:06:47.244Z,48.29
2024-01-20T18:09:14.876Z,48.06
2024-01-20T18:11:45.616Z,48.02
2024-01-20T18:14:13.734Z,47.87
2024-01-20T18:16:41.562Z,47.92
2024-01-20T18:19:10.797Z,48.01
2024-01-20T18:21:38.605Z,47.86
2024-01-20T18:24:06.459Z,47.84
2024-01-20T18:26:33.929Z,47.62
2024-01-20T18:29:01.458Z,47.60
2024-01-20T18:31:28.951Z,47.52
2024-01-20T18:33:56.620Z,47.56
2024-01-20T18:36:24.004Z,47.77
2024-01-20T18:38:53.304Z,47.25
2024-01-20T18:41:22.484Z,47.42
2024-01-20T18:43:50.239Z,47.13
2024-01-20T18:46:17.640Z,47.25
2024-01-20T18:48:45.388Z,47.35
2024-01-20T18:51:12.958Z,47.16
2024-01-20T18:53:42.668Z,47.29
2024-01-20T18:56:09.986Z,47.07
2024-01-20T18:58:38.120Z,47.21
2024-01-20T19:01:05.691Z,47.14
2024-01-20T19:03:33.503Z,47.09
2024-01-20T19:06:00.812Z,46.98
2024-01-20T19:08:28.440Z,47.14
2024-01-20T19:10:56.185Z,47.06
2024-01-20T19:13:23.764Z,46.94
2024-01-20T19:15:51.075Z,47.00
2024-01-20T19:18:18.896Z,46.93
2024-01-20T19:20:47.393Z,46.87
2024-01-20T19:23:16.859Z,46.88
2024-01-20T19:25:44.517Z,46.98
2024-01-20T19:28:12.109Z,46.95
2024-01-20T19:30:39.756Z,47.02
2024-01-20T19:33:09.131Z,47.13
2024-01-20T19:35:36.726Z,47.03
2024-01-20T19:38:04.655Z,47.07
2024-01-20T19:40:32.096Z,47.05
2024-01-20T19:42:59.806Z,47.06
2024-01-20T19:45:27.822Z,47.12
2024-01-20T19:47:55.526Z,46.94
2024-01-20T19:50:22.979Z,46.99
2024-01-20T19:52:50.710Z,47.19
2024-01-20T19:55:20.453Z,47.25
2024-01-20T19:57:48.175Z,47.27
2024-01-20T20:00:20.658Z,47.23
2024-01-20T20:02:48.748Z,47.50
2024-01-20T20:05:16.497Z,47.38
2024-01-20T20:07:44.843Z,47.49
2024-01-20T20:10:12.201Z,47.46
2024-01-20T20:12:40.050Z,47.40
2024-01-20T20:15:09.719Z,47.53
2024-01-20T20:17:38.185Z,47.49
2024-01-20T20:20:06.117Z,47.36
2024-01-20T20:22:33.841Z,47.48
2024-01-20T20:25:01.229Z,47.60
2024-01-20T20:27:28.981Z,47.77
2024-01-20T20:29:56.466Z,47.65
2024-01-20T20:32:25.675Z,47.84
2024-01-20T20:34:54.432Z,47.74
2024-01-20T20:37:22.448Z,47.57
2024-01-20T20:39:50.029Z,47.77
2024-01-20T20:42:18.041Z,47.78
2024-01-20T20:44:46.370Z,47.81
2024-01-20T20:47:14.940Z,48.02
2024-01-20T20:49:42.462Z,47.75
2024-01-20T20:52:10.112Z,47.88
2024-01-20T20:54:39.131Z,47.81
2024-01-20T20:57:07.798Z,47.96
2024-01-20T20:59:41.710Z,48.09
2024-01-20T21:02:09.726Z,48.12
2024-01-20T21:04:39.158Z,47.98
2024-01-20T21:07:08.121Z,48.34
2024-01-20T21:09:35.857Z,48.08
2024-01-20T21:12:03.961Z,48.19
2024-01-20T21:14:31.360Z,48.04
2024-01-20T21:16:58.933Z,47.94
2024-01-20T21:19:26.341Z,47.95
2024-01-20T21:21:54.544Z,48.13
2024-01-20T21:24:24.037Z,48.07
2024-01-20T21:26:51.852Z,47.96
2024-01-20T21:29:19.180Z,47.91
2024-01-20T21:31:46.875Z,48.09
2024-01-20T21:34:14.278Z,47.94
2024-01-20T21:36:41.899Z,47.79
2024-01-20T21:39:10.970Z,48.07
2024-01-20T21:41:38.986Z,47.90
2024-01-20T21:44:07.744Z,47.88
2024-01-20T21:46:36.863Z,47.89
2024-01-20T21:49:05.168Z,47.92
2024-01-20T21:51:33.276Z,47.93
2024-01-20T21:54:00.636Z,47.77
2024-01-20T21:56:28.419Z,47.71
2024-01-20T21:58:55.811Z,47.92
2024-01-20T22:01:23.708Z,47.79
2024-01-20T22:03:51.598Z,47.79
2024-01-20T22:06:19.296Z,47.67
2024-01-20T22:08:46.609Z,47.79
2024-01-20T22:11:14.585Z,47.68
2024-01-20T22:13:42.014Z,47.74
2024-01-20T22:16:09.589Z,47.64
2024-01-20T22:18:37.626Z,47.82
2024-01-20T22:21:11.193Z,47.77
2024-01-20T22:23:38.706Z,47.81
2024-01-20T22:26:07.529Z,47.83
2024-01-20T22:28:34.826Z,47.74
2024-01-20T22:31:02.526Z,47.76
2024-01-20T22:33:29.872Z,47.73
2024-01-20T22:35:57.617Z,47.74
2024-01-20T22:38:25.213Z,47.82
2024-01-20T22:40:54.958Z,47.77
2024-01-20T22:43:22.303Z,47.72
2024-01-20T22:45:50.091Z,47.77
2024-01-20T22:48:17.619Z,47.48
2024-01-20T22:50:46.277Z,47.77
2024-01-20T22:53:13.964Z,47.52
2024-01-20T22:55:41.714Z,47.56
2024-01-20T22:58:09.465Z,47.58
2024-01-20T23:00:40.092Z,47.74
2024-01-20T23:03:07.698Z,47.80
2024-01-20T23:05:35.567Z,47.74
2024-01-20T23:08:02.989Z,47.63
2024-01-20T23:10:30.721Z,47.47
2024-01-20T23:12:58.188Z,47.70
2024-01-20T23:15:26.384Z,47.58
2024-01-20T23:17:56.002Z,47.66
2024-01-20T23:20:23.657Z,47.60
2024-01-20T23:22:51.070Z,47.58
2024-01-20T23:25:18.964Z,47.82
2024-01-20T23:27:46.882Z,47.52
2024-01-20T23:30:14.923Z,47.64
2024-01-20T23:32:43.560Z,47.65
2024-01-20T23:35:11.602Z,47.51
2024-01-20T23:37:39.352Z,47.37
2024-01-20T23:40:07.394Z,47.69
2024-01-20T23:42:34.849Z,47.57
2024-01-20T23:45:03.016Z,47.44
2024-01-20T23:47:30.511Z,47.43
2024-01-20T23:49:59.827Z,47.55
2024-01-20T23:52:27.623Z,47.55
2024-01-20T23:54:55.207Z,47.50
2024-01-20T23:57:22.767Z,47.56
2024-01-20T23:59:50.378Z,47.50
